Disclaimer

Please do not use the information listed here in-flight or in-navigation, as they are not provided to us by the airports but are provided by volunteers, so they might be outdated.

Search


Regions


Airport information page

Radio informations:
Tower (TWR) - 118.1 MHz
Approach (APP) - 128.1 MHz

Airport informations:
Latitude: 19° 26' 01.10" N
Longitude: 037° 14' 02.67" E
Elevation: 135 feet - 41 meters
Operating hours: 24 hour operations
Operating agency: Civil government, landing fees and diplomatic clearance may be required
Timezone: UTC+2
Fuel: N/A

Runway information:
17/35 - 8202 x 148 feet< - >2500 x 45 meters

Recent METARs:
HSPN 122200Z 34011KT 9999 SCT030 27/20 Q1013
HSPN 122200Z 34011KT 9999 SCT030 27/20 Q1013

Airport on the map: